sensor_id;sensor_type;location;lat;lon;timestamp;temperature;humidity
73149;SHT30;61346;48.930;2.266;2022-12-11T00:00:56;3.31;74.13
73149;SHT30;61346;48.930;2.266;2022-12-11T00:03:24;3.35;73.87
73149;SHT30;61346;48.930;2.266;2022-12-11T00:05:49;3.36;73.92
73149;SHT30;61346;48.930;2.266;2022-12-11T00:08:15;3.38;73.81
73149;SHT30;61346;48.930;2.266;2022-12-11T00:10:47;3.39;73.76
73149;SHT30;61346;48.930;2.266;2022-12-11T00:13:15;3.34;73.74
73149;SHT30;61346;48.930;2.266;2022-12-11T00:15:40;3.34;73.77
73149;SHT30;61346;48.930;2.266;2022-12-11T00:18:06;3.32;73.67
73149;SHT30;61346;48.930;2.266;2022-12-11T00:20:31;3.32;73.88
73149;SHT30;61346;48.930;2.266;2022-12-11T00:22:59;3.35;73.66
73149;SHT30;61346;48.930;2.266;2022-12-11T00:25:28;3.40;73.61
73149;SHT30;61346;48.930;2.266;2022-12-11T00:27:53;3.39;73.60
73149;SHT30;61346;48.930;2.266;2022-12-11T00:30:18;3.35;73.42
73149;SHT30;61346;48.930;2.266;2022-12-11T00:32:44;3.29;73.61
73149;SHT30;61346;48.930;2.266;2022-12-11T00:35:09;3.28;73.65
73149;SHT30;61346;48.930;2.266;2022-12-11T00:37:35;3.25;73.55
73149;SHT30;61346;48.930;2.266;2022-12-11T00:40:00;3.25;73.57
73149;SHT30;61346;48.930;2.266;2022-12-11T00:42:26;3.19;73.58
73149;SHT30;61346;48.930;2.266;2022-12-11T00:44:51;3.17;73.62
73149;SHT30;61346;48.930;2.266;2022-12-11T00:47:17;3.14;73.65
73149;SHT30;61346;48.930;2.266;2022-12-11T00:49:54;3.09;73.61
73149;SHT30;61346;48.930;2.266;2022-12-11T00:52:19;3.05;73.71
73149;SHT30;61346;48.930;2.266;2022-12-11T00:54:45;3.00;73.73
73149;SHT30;61346;48.930;2.266;2022-12-11T00:57:12;3.00;73.70
73149;SHT30;61346;48.930;2.266;2022-12-11T00:59:40;2.98;73.96
73149;SHT30;61346;48.930;2.266;2022-12-11T01:02:08;2.97;73.83
73149;SHT30;61346;48.930;2.266;2022-12-11T01:04:35;2.96;73.77
73149;SHT30;61346;48.930;2.266;2022-12-11T01:07:00;2.97;73.82
73149;SHT30;61346;48.930;2.266;2022-12-11T01:09:28;2.94;73.62
73149;SHT30;61346;48.930;2.266;2022-12-11T01:12:15;2.91;73.54
73149;SHT30;61346;48.930;2.266;2022-12-11T01:14:40;2.87;73.66
73149;SHT30;61346;48.930;2.266;2022-12-11T01:17:06;2.86;73.55
73149;SHT30;61346;48.930;2.266;2022-12-11T01:19:36;2.87;73.70
73149;SHT30;61346;48.930;2.266;2022-12-11T01:22:01;2.87;73.81
73149;SHT30;61346;48.930;2.266;2022-12-11T01:24:27;2.89;73.92
73149;SHT30;61346;48.930;2.266;2022-12-11T01:26:52;2.90;73.95
73149;SHT30;61346;48.930;2.266;2022-12-11T01:29:18;2.94;73.90
73149;SHT30;61346;48.930;2.266;2022-12-11T01:31:45;2.90;73.83
73149;SHT30;61346;48.930;2.266;2022-12-11T01:34:11;2.87;73.84
73149;SHT30;61346;48.930;2.266;2022-12-11T01:36:36;2.86;74.05
73149;SHT30;61346;48.930;2.266;2022-12-11T01:39:02;2.81;73.89
73149;SHT30;61346;48.930;2.266;2022-12-11T01:41:27;2.81;73.85
73149;SHT30;61346;48.930;2.266;2022-12-11T01:44:00;2.79;73.95
73149;SHT30;61346;48.930;2.266;2022-12-11T01:46:26;2.77;74.00
73149;SHT30;61346;48.930;2.266;2022-12-11T01:49:01;2.75;74.00
73149;SHT30;61346;48.930;2.266;2022-12-11T01:51:28;2.76;74.03
73149;SHT30;61346;48.930;2.266;2022-12-11T01:53:59;2.77;73.96
73149;SHT30;61346;48.930;2.266;2022-12-11T01:56:25;2.80;73.97
73149;SHT30;61346;48.930;2.266;2022-12-11T01:58:55;2.80;73.90
73149;SHT30;61346;48.930;2.266;2022-12-11T02:01:32;2.79;73.86
73149;SHT30;61346;48.930;2.266;2022-12-11T02:04:00;2.77;73.82
73149;SHT30;61346;48.930;2.266;2022-12-11T02:06:38;2.77;73.81
73149;SHT30;61346;48.930;2.266;2022-12-11T02:09:07;2.72;74.01
73149;SHT30;61346;48.930;2.266;2022-12-11T02:12:01;2.69;74.03
73149;SHT30;61346;48.930;2.266;2022-12-11T02:14:35;2.67;74.20
73149;SHT30;61346;48.930;2.266;2022-12-11T02:17:16;2.63;74.22
73149;SHT30;61346;48.930;2.266;2022-12-11T02:22:14;2.60;74.30
73149;SHT30;61346;48.930;2.266;2022-12-11T02:27:35;2.59;74.14
73149;SHT30;61346;48.930;2.266;2022-12-11T02:30:08;2.60;74.04
73149;SHT30;61346;48.930;2.266;2022-12-11T02:32:46;2.57;74.16
73149;SHT30;61346;48.930;2.266;2022-12-11T02:35:17;2.57;74.25
73149;SHT30;61346;48.930;2.266;2022-12-11T02:37:46;2.54;74.42
73149;SHT30;61346;48.930;2.266;2022-12-11T02:40:19;2.52;74.26
73149;SHT30;61346;48.930;2.266;2022-12-11T02:42:49;2.57;74.41
73149;SHT30;61346;48.930;2.266;2022-12-11T02:45:17;2.57;74.12
73149;SHT30;61346;48.930;2.266;2022-12-11T02:47:46;2.59;74.09
73149;SHT30;61346;48.930;2.266;2022-12-11T02:50:16;2.57;73.97
73149;SHT30;61346;48.930;2.266;2022-12-11T02:52:45;2.50;73.96
73149;SHT30;61346;48.930;2.266;2022-12-11T02:55:14;2.53;74.02
73149;SHT30;61346;48.930;2.266;2022-12-11T02:58:03;2.52;74.06
73149;SHT30;61346;48.930;2.266;2022-12-11T03:00:30;2.49;74.21
73149;SHT30;61346;48.930;2.266;2022-12-11T03:02:56;2.49;74.16
73149;SHT30;61346;48.930;2.266;2022-12-11T03:05:22;2.49;74.27
73149;SHT30;61346;48.930;2.266;2022-12-11T03:07:48;2.49;74.23
73149;SHT30;61346;48.930;2.266;2022-12-11T03:10:16;2.46;74.15
73149;SHT30;61346;48.930;2.266;2022-12-11T03:12:46;2.45;74.32
73149;SHT30;61346;48.930;2.266;2022-12-11T03:15:18;2.43;74.38
73149;SHT30;61346;48.930;2.266;2022-12-11T03:20:45;2.48;74.26
73149;SHT30;61346;48.930;2.266;2022-12-11T03:26:18;2.46;74.06
73149;SHT30;61346;48.930;2.266;2022-12-11T03:31:41;2.42;74.09
73149;SHT30;61346;48.930;2.266;2022-12-11T03:34:15;2.41;74.23
73149;SHT30;61346;48.930;2.266;2022-12-11T03:36:43;2.42;74.16
73149;SHT30;61346;48.930;2.266;2022-12-11T03:39:15;2.45;74.30
73149;SHT30;61346;48.930;2.266;2022-12-11T03:41:43;2.48;74.26
73149;SHT30;61346;48.930;2.266;2022-12-11T03:44:11;2.48;74.14
73149;SHT30;61346;48.930;2.266;2022-12-11T03:46:38;2.48;74.12
73149;SHT30;61346;48.930;2.266;2022-12-11T03:49:16;2.50;73.93
73149;SHT30;61346;48.930;2.266;2022-12-11T03:51:45;2.45;73.95
73149;SHT30;61346;48.930;2.266;2022-12-11T03:54:14;2.46;74.04
73149;SHT30;61346;48.930;2.266;2022-12-11T03:56:42;2.46;73.95
73149;SHT30;61346;48.930;2.266;2022-12-11T03:59:08;2.43;73.87
73149;SHT30;61346;48.930;2.266;2022-12-11T04:01:34;2.39;73.88
73149;SHT30;61346;48.930;2.266;2022-12-11T04:03:59;2.42;73.90
73149;SHT30;61346;48.930;2.266;2022-12-11T04:06:25;2.39;73.88
73149;SHT30;61346;48.930;2.266;2022-12-11T04:08:50;2.41;73.98
73149;SHT30;61346;48.930;2.266;2022-12-11T04:11:16;2.43;73.78
73149;SHT30;61346;48.930;2.266;2022-12-11T04:14:09;2.45;73.84
73149;SHT30;61346;48.930;2.266;2022-12-11T04:16:55;2.41;73.85
73149;SHT30;61346;48.930;2.266;2022-12-11T04:19:21;2.39;73.93
73149;SHT30;61346;48.930;2.266;2022-12-11T04:22:06;2.35;74.05
73149;SHT30;61346;48.930;2.266;2022-12-11T04:24:50;2.35;74.41
73149;SHT30;61346;48.930;2.266;2022-12-11T04:27:17;2.32;74.10
73149;SHT30;61346;48.930;2.266;2022-12-11T04:30:05;2.31;74.21
73149;SHT30;61346;48.930;2.266;2022-12-11T04:32:31;2.24;74.15
73149;SHT30;61346;48.930;2.266;2022-12-11T04:34:57;2.25;74.01
73149;SHT30;61346;48.930;2.266;2022-12-11T04:37:22;2.26;73.89
73149;SHT30;61346;48.930;2.266;2022-12-11T04:39:50;2.24;73.77
73149;SHT30;61346;48.930;2.266;2022-12-11T04:42:15;2.17;73.96
73149;SHT30;61346;48.930;2.266;2022-12-11T04:44:41;2.18;73.98
73149;SHT30;61346;48.930;2.266;2022-12-11T04:47:06;2.13;73.92
73149;SHT30;61346;48.930;2.266;2022-12-11T04:49:31;2.08;74.22
73149;SHT30;61346;48.930;2.266;2022-12-11T04:51:59;2.10;74.24
73149;SHT30;61346;48.930;2.266;2022-12-11T04:54:25;2.11;74.27
73149;SHT30;61346;48.930;2.266;2022-12-11T04:56:50;2.15;74.21
73149;SHT30;61346;48.930;2.266;2022-12-11T04:59:15;2.21;73.97
73149;SHT30;61346;48.930;2.266;2022-12-11T05:01:41;2.21;74.02
73149;SHT30;61346;48.930;2.266;2022-12-11T05:04:08;2.14;73.87
73149;SHT30;61346;48.930;2.266;2022-12-11T05:06:34;2.11;73.73
73149;SHT30;61346;48.930;2.266;2022-12-11T05:08:59;2.08;73.92
73149;SHT30;61346;48.930;2.266;2022-12-11T05:11:25;2.05;74.05
73149;SHT30;61346;48.930;2.266;2022-12-11T05:13:59;2.03;73.95
73149;SHT30;61346;48.930;2.266;2022-12-11T05:16:24;2.04;74.14
73149;SHT30;61346;48.930;2.266;2022-12-11T05:18:50;2.05;74.03
73149;SHT30;61346;48.930;2.266;2022-12-11T05:21:15;2.04;73.84
73149;SHT30;61346;48.930;2.266;2022-12-11T05:23:41;2.03;73.90
73149;SHT30;61346;48.930;2.266;2022-12-11T05:26:11;2.03;73.88
73149;SHT30;61346;48.930;2.266;2022-12-11T05:28:37;2.04;74.03
73149;SHT30;61346;48.930;2.266;2022-12-11T05:31:07;2.07;73.91
73149;SHT30;61346;48.930;2.266;2022-12-11T05:33:35;2.03;74.05
73149;SHT30;61346;48.930;2.266;2022-12-11T05:36:01;2.03;73.94
73149;SHT30;61346;48.930;2.266;2022-12-11T05:38:27;2.04;74.18
73149;SHT30;61346;48.930;2.266;2022-12-11T05:41:01;2.04;73.89
73149;SHT30;61346;48.930;2.266;2022-12-11T05:43:28;2.04;74.02
73149;SHT30;61346;48.930;2.266;2022-12-11T05:45:54;2.04;73.93
73149;SHT30;61346;48.930;2.266;2022-12-11T05:48:19;2.03;74.00
73149;SHT30;61346;48.930;2.266;2022-12-11T05:50:55;2.01;74.16
73149;SHT30;61346;48.930;2.266;2022-12-11T05:53:21;2.05;74.17
73149;SHT30;61346;48.930;2.266;2022-12-11T05:55:46;2.05;73.90
73149;SHT30;61346;48.930;2.266;2022-12-11T05:58:12;2.00;74.08
73149;SHT30;61346;48.930;2.266;2022-12-11T06:00:40;2.01;74.19
73149;SHT30;61346;48.930;2.266;2022-12-11T06:03:05;2.01;74.26
73149;SHT30;61346;48.930;2.266;2022-12-11T06:05:31;2.05;74.22
73149;SHT30;61346;48.930;2.266;2022-12-11T06:07:56;2.05;74.25
73149;SHT30;61346;48.930;2.266;2022-12-11T06:10:24;2.13;74.19
73149;SHT30;61346;48.930;2.266;2022-12-11T06:12:49;2.14;74.38
73149;SHT30;61346;48.930;2.266;2022-12-11T06:15:15;2.17;74.42
73149;SHT30;61346;48.930;2.266;2022-12-11T06:17:40;2.15;74.17
73149;SHT30;61346;48.930;2.266;2022-12-11T06:20:08;2.20;74.27
73149;SHT30;61346;48.930;2.266;2022-12-11T06:22:36;2.18;74.14
73149;SHT30;61346;48.930;2.266;2022-12-11T06:25:01;2.18;74.19
73149;SHT30;61346;48.930;2.266;2022-12-11T06:27:26;2.17;74.37
73149;SHT30;61346;48.930;2.266;2022-12-11T06:29:52;2.18;74.16
73149;SHT30;61346;48.930;2.266;2022-12-11T06:32:25;2.24;74.21
73149;SHT30;61346;48.930;2.266;2022-12-11T06:34:52;2.24;74.13
73149;SHT30;61346;48.930;2.266;2022-12-11T08:45:37;1.97;73.24
73149;SHT30;61346;48.930;2.266;2022-12-11T08:48:14;1.98;73.11
73149;SHT30;61346;48.930;2.266;2022-12-11T08:51:30;2.04;72.85
73149;SHT30;61346;48.930;2.266;2022-12-11T09:23:21;2.46;72.21
73149;SHT30;61346;48.930;2.266;2022-12-11T09:25:49;2.52;71.87
73149;SHT30;61346;48.930;2.266;2022-12-11T09:28:20;2.57;71.62
73149;SHT30;61346;48.930;2.266;2022-12-11T09:30:48;2.64;71.51
73149;SHT30;61346;48.930;2.266;2022-12-11T09:33:19;2.67;70.99
73149;SHT30;61346;48.930;2.266;2022-12-11T09:35:45;2.69;70.76
73149;SHT30;61346;48.930;2.266;2022-12-11T09:38:31;2.69;70.95
73149;SHT30;61346;48.930;2.266;2022-12-11T09:40:59;2.79;70.63
73149;SHT30;61346;48.930;2.266;2022-12-11T09:43:45;2.77;70.01
73149;SHT30;61346;48.930;2.266;2022-12-11T09:46:15;2.79;70.20
73149;SHT30;61346;48.930;2.266;2022-12-11T09:48:59;2.79;70.53
73149;SHT30;61346;48.930;2.266;2022-12-11T09:51:45;2.80;69.55
73149;SHT30;61346;48.930;2.266;2022-12-11T09:54:22;2.76;69.98
73149;SHT30;61346;48.930;2.266;2022-12-11T09:57:47;2.73;69.99
73149;SHT30;61346;48.930;2.266;2022-12-11T10:17:55;3.05;69.89
73149;SHT30;61346;48.930;2.266;2022-12-11T10:27:01;3.11;69.13
73149;SHT30;61346;48.930;2.266;2022-12-11T10:30:00;3.21;69.96
73149;SHT30;61346;48.930;2.266;2022-12-11T10:32:52;3.36;69.28
73149;SHT30;61346;48.930;2.266;2022-12-11T10:35:48;3.43;69.28
73149;SHT30;61346;48.930;2.266;2022-12-11T10:38:46;3.55;69.11
73149;SHT30;61346;48.930;2.266;2022-12-11T10:45:05;3.58;69.02
73149;SHT30;61346;48.930;2.266;2022-12-11T10:48:33;3.58;68.62
73149;SHT30;61346;48.930;2.266;2022-12-11T10:51:34;3.58;68.62
73149;SHT30;61346;48.930;2.266;2022-12-11T10:57:24;3.56;67.98
73149;SHT30;61346;48.930;2.266;2022-12-11T11:02:54;3.77;68.19
73149;SHT30;61346;48.930;2.266;2022-12-11T11:08:26;3.83;67.36
73149;SHT30;61346;48.930;2.266;2022-12-11T11:17:10;3.86;67.29
73149;SHT30;61346;48.930;2.266;2022-12-11T16:09:33;3.63;66.28
73149;SHT30;61346;48.930;2.266;2022-12-11T17:56:37;2.36;70.80
73149;SHT30;61346;48.930;2.266;2022-12-11T18:28:44;2.17;71.28
73149;SHT30;61346;48.930;2.266;2022-12-11T21:28:42;2.11;71.92
73149;SHT30;61346;48.930;2.266;2022-12-11T22:12:27;1.84;72.37
73149;SHT30;61346;48.930;2.266;2022-12-11T22:14:55;1.87;72.40
73149;SHT30;61346;48.930;2.266;2022-12-11T22:17:21;1.90;72.55
73149;SHT30;61346;48.930;2.266;2022-12-11T22:19:47;1.90;72.39
73149;SHT30;61346;48.930;2.266;2022-12-11T22:22:13;1.93;72.33
73149;SHT30;61346;48.930;2.266;2022-12-11T22:24:39;1.94;72.37
73149;SHT30;61346;48.930;2.266;2022-12-11T22:27:04;1.94;72.43
73149;SHT30;61346;48.930;2.266;2022-12-11T22:29:30;1.98;72.43
73149;SHT30;61346;48.930;2.266;2022-12-11T22:31:55;2.07;72.28
73149;SHT30;61346;48.930;2.266;2022-12-11T22:34:21;2.10;72.30
73149;SHT30;61346;48.930;2.266;2022-12-11T22:36:47;2.13;72.14
73149;SHT30;61346;48.930;2.266;2022-12-11T22:39:12;2.14;72.08
73149;SHT30;61346;48.930;2.266;2022-12-11T22:41:37;2.14;72.02
73149;SHT30;61346;48.930;2.266;2022-12-11T22:44:11;2.15;72.12
73149;SHT30;61346;48.930;2.266;2022-12-11T22:46:37;2.20;71.96
73149;SHT30;61346;48.930;2.266;2022-12-11T22:49:02;2.24;72.03
73149;SHT30;61346;48.930;2.266;2022-12-11T22:51:28;2.26;71.81
73149;SHT30;61346;48.930;2.266;2022-12-11T22:53:53;2.29;71.60
73149;SHT30;61346;48.930;2.266;2022-12-11T22:56:19;2.26;71.47
73149;SHT30;61346;48.930;2.266;2022-12-11T22:58:47;2.18;71.47
73149;SHT30;61346;48.930;2.266;2022-12-11T23:01:17;2.15;71.61
73149;SHT30;61346;48.930;2.266;2022-12-11T23:03:52;2.13;71.71
73149;SHT30;61346;48.930;2.266;2022-12-11T23:06:21;2.07;71.82
73149;SHT30;61346;48.930;2.266;2022-12-11T23:08:47;2.07;71.80
73149;SHT30;61346;48.930;2.266;2022-12-11T23:11:19;2.05;71.73
73149;SHT30;61346;48.930;2.266;2022-12-11T23:13:47;2.05;71.89
73149;SHT30;61346;48.930;2.266;2022-12-11T23:16:12;2.11;71.90
73149;SHT30;61346;48.930;2.266;2022-12-11T23:18:38;2.10;71.82
73149;SHT30;61346;48.930;2.266;2022-12-11T23:21:04;2.11;71.83
73149;SHT30;61346;48.930;2.266;2022-12-11T23:23:30;2.10;71.82
73149;SHT30;61346;48.930;2.266;2022-12-11T23:26:03;2.08;71.51
73149;SHT30;61346;48.930;2.266;2022-12-11T23:28:31;2.10;71.71
73149;SHT30;61346;48.930;2.266;2022-12-11T23:30:57;2.10;71.71
73149;SHT30;61346;48.930;2.266;2022-12-11T23:33:22;2.10;71.59
73149;SHT30;61346;48.930;2.266;2022-12-11T23:35:48;2.13;71.59
73149;SHT30;61346;48.930;2.266;2022-12-11T23:38:15;2.11;71.34
73149;SHT30;61346;48.930;2.266;2022-12-11T23:40:40;2.10;71.35
73149;SHT30;61346;48.930;2.266;2022-12-11T23:43:06;2.07;71.41
73149;SHT30;61346;48.930;2.266;2022-12-11T23:45:34;2.07;71.40
73149;SHT30;61346;48.930;2.266;2022-12-11T23:47:59;2.10;71.19
73149;SHT30;61346;48.930;2.266;2022-12-11T23:50:24;2.08;71.37
73149;SHT30;61346;48.930;2.266;2022-12-11T23:52:53;2.04;71.31
73149;SHT30;61346;48.930;2.266;2022-12-11T23:55:18;2.05;71.38
73149;SHT30;61346;48.930;2.266;2022-12-11T23:57:44;2.03;71.39
